createdAt,value
2022-08-16T00:03:13.630Z,-11329.31
2022-08-16T00:06:21.608Z,-11322.00
2022-08-16T00:09:29.051Z,-11323.25
2022-08-16T00:12:35.640Z,-11323.97
2022-08-16T00:15:51.498Z,-11320.03
2022-08-16T00:19:01.173Z,-11324.81
2022-08-16T00:22:13.331Z,-11323.53
2022-08-16T00:26:33.428Z,-11329.03
2022-08-16T00:28:54.836Z,-11325.94
2022-08-16T00:32:05.563Z,-11343.69
2022-08-16T00:35:16.141Z,-11347.78
2022-08-16T00:38:40.985Z,-11344.81
2022-08-16T00:41:51.176Z,-11338.91
2022-08-16T00:45:06.672Z,-11329.75
2022-08-16T00:48:31.181Z,-11331.44
2022-08-16T00:51:38.694Z,-11344.66
2022-08-16T00:54:46.227Z,-11316.66
2022-08-16T00:57:59.619Z,-11309.59
2022-08-16T01:01:08.928Z,-11313.41
2022-08-16T01:04:29.125Z,-11314.97
2022-08-16T01:07:51.089Z,-11331.56
2022-08-16T01:10:59.967Z,-11335.38
2022-08-16T01:14:13.100Z,-11328.47
2022-08-16T01:17:21.139Z,-11321.28
2022-08-16T01:20:36.555Z,-11336.66
2022-08-16T01:24:02.456Z,-11341.72
2022-08-16T01:27:15.224Z,-11341.72
2022-08-16T01:30:27.655Z,-11341.16
2022-08-16T01:33:35.785Z,-11339.75
2022-08-16T01:36:43.390Z,-11341.44
2022-08-16T01:39:51.752Z,-11341.44
2022-08-16T01:42:58.595Z,-11337.50
2022-08-16T01:46:37.748Z,-11343.53
2022-08-16T01:50:40.703Z,-11326.06
2022-08-16T01:53:07.051Z,-11336.09
2022-08-16T01:56:23.516Z,-11336.66
2022-08-16T01:59:32.375Z,-11326.94
2022-08-16T02:02:42.474Z,-11320.59
2022-08-16T02:05:52.033Z,-11317.91
2022-08-16T02:08:59.508Z,-11312.13
2022-08-16T02:12:39.509Z,-11314.69
2022-08-16T02:15:42.487Z,-11312.56
2022-08-16T02:18:50.605Z,-11309.19
2022-08-16T02:22:09.151Z,-11312.41
2022-08-16T02:25:52.026Z,-11323.97
2022-08-16T02:28:55.288Z,-11336.09
2022-08-16T02:32:49.714Z,-11336.66
2022-08-16T02:35:29.406Z,-11331.00
2022-08-16T02:38:35.849Z,-11317.06
2022-08-16T02:41:46.342Z,-11311.72
2022-08-16T02:45:01.416Z,-11294.97
2022-08-16T02:48:30.068Z,-11298.78
2022-08-16T02:51:35.739Z,-11289.19
2022-08-16T02:54:41.827Z,-11302.72
2022-08-16T02:57:54.119Z,-11306.78
2022-08-16T03:01:02.564Z,-11315.25
2022-08-16T03:04:49.708Z,-11319.03
2022-08-16T03:07:37.618Z,-11318.91
2022-08-16T03:10:44.700Z,-11316.78
2022-08-16T03:13:56.673Z,-11320.31
2022-08-16T03:17:05.278Z,-11326.22
2022-08-16T03:20:14.496Z,-11327.63
2022-08-16T03:23:24.582Z,-11325.66
2022-08-16T03:26:32.125Z,-11326.22
2022-08-16T03:29:39.396Z,-11314.81
2022-08-16T03:33:02.511Z,-11311.72
2022-08-16T03:36:29.742Z,-11315.81
2022-08-16T03:39:36.103Z,-11315.66
2022-08-16T03:42:49.423Z,-11299.19
2022-08-16T03:46:48.427Z,-11290.19
2022-08-16T03:49:43.855Z,-11311.28
2022-08-16T03:52:51.166Z,-11306.78
2022-08-16T03:56:07.616Z,-11300.88
2022-08-16T03:59:23.988Z,-11305.09
2022-08-16T04:02:31.671Z,-11312.41
2022-08-16T04:05:44.202Z,-11311.56
2022-08-16T04:08:50.895Z,-11320.16
2022-08-16T04:11:57.338Z,-11333.56
2022-08-16T04:15:07.832Z,-11334.81
2022-08-16T04:18:14.324Z,-11337.50
2022-08-16T04:21:29.494Z,-11334.66
2022-08-16T04:24:35.980Z,-11316.38
2022-08-16T04:27:54.401Z,-11319.19
2022-08-16T04:31:02.359Z,-11326.06
2022-08-16T04:34:14.608Z,-11310.72
2022-08-16T04:37:22.842Z,-11321.28
2022-08-16T04:40:29.421Z,-11323.81
2022-08-16T04:43:38.612Z,-11322.13
2022-08-16T04:47:01.438Z,-11326.78
2022-08-16T04:50:12.369Z,-11334.66
2022-08-16T04:53:22.266Z,-11345.09
2022-08-16T04:56:32.026Z,-11353.81
2022-08-16T04:59:40.026Z,-11367.22
2022-08-16T05:02:51.105Z,-11365.09
2022-08-16T05:06:04.934Z,-11377.22
2022-08-16T05:09:12.949Z,-11381.03
2022-08-16T05:12:22.260Z,-11383.97
2022-08-16T05:15:37.881Z,-11379.47
2022-08-16T05:18:44.286Z,-11391.88
2022-08-16T05:21:51.535Z,-11392.72
2022-08-16T05:24:59.231Z,-11381.03
2022-08-16T05:28:05.872Z,-11391.88
2022-08-16T05:31:13.203Z,-11386.50
2022-08-16T05:34:22.437Z,-11392.84
2022-08-16T05:37:29.015Z,-11404.00
2022-08-16T05:40:59.671Z,-11407.22
2022-08-16T05:44:24.001Z,-11419.91
2022-08-16T05:47:31.054Z,-11422.31
2022-08-16T05:50:38.237Z,-11416.09
2022-08-16T05:53:48.092Z,-11430.78
2022-08-16T05:56:58.314Z,-11436.97
2022-08-16T06:00:10.362Z,-11426.81
2022-08-16T06:03:17.061Z,-11414.41
2022-08-16T06:06:28.182Z,-11443.19
2022-08-16T06:09:42.962Z,-11449.09
2022-08-16T06:12:55.651Z,-11455.44
2022-08-16T06:16:01.890Z,-11457.97
2022-08-16T06:19:08.190Z,-11462.06
2022-08-16T06:22:37.292Z,-11467.44
2022-08-16T06:25:41.727Z,-11480.69
2022-08-16T06:28:50.214Z,-11480.97
2022-08-16T06:31:59.221Z,-11503.81
2022-08-16T06:35:06.922Z,-11490.69
2022-08-16T06:38:32.934Z,-11502.28
2022-08-16T06:41:40.272Z,-11512.41
2022-08-16T06:44:49.152Z,-11512.28
2022-08-16T06:47:56.615Z,-11519.34
2022-08-16T06:51:04.711Z,-11510.72
2022-08-16T06:54:14.117Z,-11518.22
2022-08-16T06:57:20.641Z,-11529.91
2022-08-16T07:00:28.887Z,-11540.63
2022-08-16T07:03:54.506Z,-11538.25
2022-08-16T07:07:03.030Z,-11545.88
2022-08-16T07:10:10.322Z,-11555.88
2022-08-16T07:13:26.722Z,-11551.94
2022-08-16T07:16:45.289Z,-11578.59
2022-08-16T07:20:29.532Z,-11587.94
2022-08-16T07:23:19.047Z,-11605.13
2022-08-16T07:26:26.858Z,-11611.63
2022-08-16T07:29:33.641Z,-11601.75
2022-08-16T07:32:41.724Z,-11593.72
2022-08-16T07:35:59.696Z,-11606.13
2022-08-16T07:39:05.944Z,-11607.97
2022-08-16T07:42:28.288Z,-11618.28
2022-08-16T07:45:42.801Z,-11617.00
2022-08-16T07:48:51.157Z,-11613.34
2022-08-16T07:52:01.441Z,-11634.22
2022-08-16T07:55:25.316Z,-11638.75
2022-08-16T07:58:36.192Z,-11630.84
2022-08-16T08:01:42.673Z,-11638.75
2022-08-16T08:04:50.478Z,-11626.59
2022-08-16T08:07:57.736Z,-11649.75
2022-08-16T08:11:09.371Z,-11651.75
2022-08-16T08:14:29.746Z,-11644.66
2022-08-16T08:17:42.977Z,-11655.69
2022-08-16T08:20:59.336Z,-11657.66
2022-08-16T08:24:09.226Z,-11662.87
2022-08-16T08:27:22.611Z,-11662.47
2022-08-16T08:30:49.853Z,-11668.13
2022-08-16T08:33:56.872Z,-11669.97
2022-08-16T08:37:05.980Z,-11693.25
2022-08-16T08:40:14.278Z,-11691.00
2022-08-16T08:43:25.124Z,-11690.28
2022-08-16T08:46:35.713Z,-11693.81
2022-08-16T08:49:50.272Z,-11689.88
2022-08-16T08:53:04.087Z,-11690.44
2022-08-16T08:56:22.829Z,-11692.84
2022-08-16T08:59:32.135Z,-11706.53
2022-08-16T09:02:38.516Z,-11679.41
2022-08-16T09:05:49.601Z,-11703.16
2022-08-16T09:08:59.319Z,-11708.22
2022-08-16T09:12:07.422Z,-11712.75
2022-08-16T09:15:16.170Z,-11721.50
2022-08-16T09:18:35.592Z,-11720.66
2022-08-16T09:21:42.931Z,-11707.66
2022-08-16T09:24:54.152Z,-11717.00
2022-08-16T09:29:13.877Z,-11703.44
2022-08-16T09:31:43.455Z,-11718.97
2022-08-16T09:34:51.493Z,-11719.81
2022-08-16T09:38:00.433Z,-11720.66
2022-08-16T09:41:14.530Z,-11711.06
2022-08-16T09:45:12.406Z,-11731.41
2022-08-16T09:47:57.094Z,-11729.41
2022-08-16T09:51:04.438Z,-11755.41
2022-08-16T09:54:17.091Z,-11735.06
2022-08-16T09:57:34.677Z,-11738.75
2022-08-16T10:00:44.145Z,-11735.63
2022-08-16T10:04:02.555Z,-11745.25
2022-08-16T10:07:15.362Z,-11758.53
2022-08-16T10:10:30.553Z,-11752.31
2022-08-16T10:13:39.682Z,-11742.69
2022-08-16T10:16:48.875Z,-11755.41
2022-08-16T10:19:56.110Z,-11777.16
2022-08-16T10:23:07.119Z,-11755.84
2022-08-16T10:27:19.389Z,-11763.88
2022-08-16T10:30:01.519Z,-11747.22
2022-08-16T10:33:08.564Z,-11743.53
2022-08-16T10:36:39.003Z,-11747.22
2022-08-16T10:39:43.604Z,-11751.88
2022-08-16T10:42:50.567Z,-11766.00
2022-08-16T10:46:00.413Z,-11747.06
2022-08-16T10:49:07.103Z,-11733.53
2022-08-16T10:52:18.163Z,-11758.81
2022-08-16T10:55:44.462Z,-11750.06
2022-08-16T10:58:52.770Z,-11751.47
2022-08-16T11:05:28.110Z,-11742.69
2022-08-16T11:08:35.609Z,-11758.81
2022-08-16T11:15:12.137Z,-11758.81
2022-08-16T11:18:48.743Z,-11761.50
2022-08-16T11:26:07.791Z,-11766.88
2022-08-16T11:32:10.301Z,-11776.19
2022-08-16T11:35:43.439Z,-11755.13
2022-08-16T11:38:55.818Z,-11757.53
2022-08-16T11:42:04.065Z,-11759.94
2022-08-16T11:45:33.579Z,-11771.53
2022-08-16T11:48:41.369Z,-11775.47
2022-08-16T11:51:50.187Z,-11786.50
2022-08-16T11:54:57.194Z,-11770.38
2022-08-16T11:58:07.783Z,-11770.66
2022-08-16T12:01:15.656Z,-11781.28
2022-08-16T12:04:22.414Z,-11780.00
2022-08-16T12:07:33.206Z,-11774.63
2022-08-16T12:10:43.261Z,-11772.94
2022-08-16T12:13:49.686Z,-11780.13
2022-08-16T12:16:59.693Z,-11766.72
2022-08-16T12:20:12.795Z,-11781.97
2022-08-16T12:23:22.475Z,-11780.00
2022-08-16T12:26:28.887Z,-11788.19
2022-08-16T12:29:35.525Z,-11775.63
2022-08-16T12:32:43.104Z,-11814.47
2022-08-16T12:35:50.734Z,-11779.72
2022-08-16T12:38:59.996Z,-11787.91
2022-08-16T12:42:09.587Z,-11786.91
2022-08-16T12:45:17.346Z,-11787.06
2022-08-16T12:48:46.886Z,-11801.34
2022-08-16T12:51:58.657Z,-11799.78
2022-08-16T12:55:11.535Z,-11770.94
2022-08-16T12:58:47.497Z,-11768.41
2022-08-16T13:01:47.899Z,-11765.03
2022-08-16T13:04:57.007Z,-11763.31
2022-08-16T13:08:04.430Z,-11770.53
2022-08-16T13:11:12.572Z,-11758.81
2022-08-16T13:14:31.311Z,-11740.16
2022-08-16T13:17:43.277Z,-11739.59
2022-08-16T13:20:50.171Z,-11723.34
2022-08-16T13:23:57.359Z,-11713.88
2022-08-16T13:27:06.618Z,-11709.63
2022-08-16T13:30:35.628Z,-11709.63
2022-08-16T13:33:41.234Z,-11705.41
2022-08-16T13:36:49.489Z,-11711.34
2022-08-16T13:39:56.272Z,-11714.72
2022-08-16T13:43:04.257Z,-11715.56
2022-08-16T13:46:10.388Z,-11710.78
2022-08-16T13:49:17.618Z,-11713.31
2022-08-16T13:52:32.111Z,-11709.50
2022-08-16T13:55:41.084Z,-11724.06
2022-08-16T13:58:54.815Z,-11752.31
2022-08-16T14:02:02.836Z,-11788.19
2022-08-16T14:05:09.942Z,-11757.97
2022-08-16T14:08:17.016Z,-11751.47
2022-08-16T14:11:24.015Z,-11754.56
2022-08-16T14:14:32.486Z,-11764.59
2022-08-16T14:18:15.563Z,-11746.66
2022-08-16T14:21:05.615Z,-11738.75
2022-08-16T14:24:22.397Z,-11732.66
2022-08-16T14:27:39.124Z,-11717.41
2022-08-16T14:30:49.937Z,-11708.22
2022-08-16T14:33:57.998Z,-11713.88
2022-08-16T14:37:05.951Z,-11702.72
2022-08-16T14:40:13.936Z,-11678.28
2022-08-16T14:43:20.681Z,-11680.69
2022-08-16T14:46:29.223Z,-11679.84
2022-08-16T14:49:36.331Z,-11693.25
2022-08-16T14:52:56.461Z,-11689.31
2022-08-16T14:56:03.211Z,-11693.81
2022-08-16T14:59:11.307Z,-11675.31
2022-08-16T15:02:34.262Z,-11681.38
2022-08-16T15:05:43.067Z,-11677.00
2022-08-16T15:08:49.800Z,-11675.31
2022-08-16T15:11:57.394Z,-11677.84
2022-08-16T15:15:13.159Z,-11690.16
2022-08-16T15:18:27.905Z,-11698.91
2022-08-16T15:21:34.800Z,-11695.78
2022-08-16T15:24:41.667Z,-11692.13
2022-08-16T15:27:55.402Z,-11692.41
2022-08-16T15:31:03.929Z,-11688.16
2022-08-16T15:34:13.143Z,-11681.97
2022-08-16T15:37:42.553Z,-11682.81
2022-08-16T15:40:57.504Z,-11680.81
2022-08-16T15:44:10.817Z,-11679.56
2022-08-16T15:47:17.909Z,-11674.31
2022-08-16T15:50:25.990Z,-11669.38
2022-08-16T15:53:33.350Z,-11671.78
2022-08-16T15:56:51.536Z,-11666.16
2022-08-16T16:00:04.894Z,-11655.25
2022-08-16T16:03:23.757Z,-11659.06
2022-08-16T16:06:33.195Z,-11652.03
2022-08-16T16:09:40.452Z,-11653.16
2022-08-16T16:12:54.177Z,-11650.03
2022-08-16T16:16:03.978Z,-11648.91
2022-08-16T16:19:20.088Z,-11647.22
2022-08-16T16:22:30.143Z,-11645.81
2022-08-16T16:25:36.816Z,-11647.06
2022-08-16T16:29:05.508Z,-11647.50
2022-08-16T16:32:10.932Z,-11643.81
2022-08-16T16:35:19.317Z,-11644.38
2022-08-16T16:38:34.875Z,-11637.06
2022-08-16T16:41:42.153Z,-11636.19
2022-08-16T16:44:48.740Z,-11631.97
2022-08-16T16:47:57.259Z,-11623.50
2022-08-16T16:51:19.014Z,-11620.53
2022-08-16T16:54:28.308Z,-11619.13
2022-08-16T16:57:52.295Z,-11617.84
2022-08-16T17:00:59.040Z,-11623.50
2022-08-16T17:04:19.173Z,-11617.84
2022-08-16T17:07:26.515Z,-11615.31
2022-08-16T17:10:46.541Z,-11606.84
2022-08-16T17:13:56.407Z,-11604.72
2022-08-16T17:17:08.711Z,-11601.75
2022-08-16T17:20:16.695Z,-11600.06
2022-08-16T17:23:59.315Z,-11594.56
2022-08-16T17:26:55.938Z,-11588.78
2022-08-16T17:30:15.563Z,-11584.38
2022-08-16T17:33:23.613Z,-11579.31
2022-08-16T17:36:35.953Z,-11577.63
2022-08-16T17:40:00.389Z,-11573.09
2022-08-16T17:43:11.051Z,-11570.97
2022-08-16T17:46:51.825Z,-11567.03
2022-08-16T17:49:44.392Z,-11568.44
2022-08-16T17:52:51.514Z,-11572.13
2022-08-16T17:55:57.757Z,-11568.44
2022-08-16T17:59:05.629Z,-11563.50
2022-08-16T18:02:44.240Z,-11554.19
2022-08-16T18:05:39.306Z,-11552.34
2022-08-16T18:08:48.612Z,-11556.72
2022-08-16T18:11:55.491Z,-11553.91
2022-08-16T18:15:03.618Z,-11554.63
2022-08-16T18:18:10.403Z,-11559.13
2022-08-16T18:21:34.330Z,-11555.19
2022-08-16T18:24:40.824Z,-11553.19
2022-08-16T18:27:47.017Z,-11552.63
2022-08-16T18:31:00.270Z,-11547.28
2022-08-16T18:34:07.671Z,-11546.44
2022-08-16T18:37:14.302Z,-11544.72
2022-08-16T18:40:21.628Z,-11543.59
2022-08-16T18:44:00.898Z,-11542.75
2022-08-16T18:46:55.840Z,-11534.44
2022-08-16T18:50:01.881Z,-11529.22
2022-08-16T18:53:10.803Z,-11519.91
2022-08-16T18:56:17.218Z,-11521.59
2022-08-16T18:59:23.963Z,-11519.63
2022-08-16T19:02:56.874Z,-11514.13
2022-08-16T19:06:02.455Z,-11509.47
2022-08-16T19:09:09.052Z,-11509.59
2022-08-16T19:12:15.868Z,-11509.75
2022-08-16T19:15:26.056Z,-11508.06
2022-08-16T19:18:36.714Z,-11505.94
2022-08-16T19:21:43.386Z,-11501.28
2022-08-16T19:24:49.833Z,-11506.94
2022-08-16T19:27:56.318Z,-11497.31
2022-08-16T19:31:04.291Z,-11495.22
2022-08-16T19:34:13.340Z,-11493.81
2022-08-16T19:37:20.160Z,-11494.22
2022-08-16T19:40:37.177Z,-11493.38
2022-08-16T19:43:44.912Z,-11486.03
2022-08-16T19:46:51.210Z,-11489.84
2022-08-16T19:49:59.208Z,-11494.78
2022-08-16T19:53:12.356Z,-11488.03
2022-08-16T19:56:26.900Z,-11487.88
2022-08-16T19:59:40.526Z,-11484.63
2022-08-16T20:02:52.309Z,-11485.19
2022-08-16T20:06:00.430Z,-11485.75
2022-08-16T20:09:07.485Z,-11481.25
2022-08-16T20:12:16.089Z,-11476.75
2022-08-16T20:15:26.829Z,-11479.13
2022-08-16T20:18:34.844Z,-11477.72
2022-08-16T20:21:42.859Z,-11473.63
2022-08-16T20:24:49.189Z,-11469.97
2022-08-16T20:27:55.621Z,-11464.59
2022-08-16T20:31:02.496Z,-11454.75
2022-08-16T20:34:09.176Z,-11465.16
2022-08-16T20:37:16.869Z,-11461.09
2022-08-16T20:40:34.757Z,-11458.97
2022-08-16T20:43:42.113Z,-11472.50
2022-08-16T20:46:48.720Z,-11467.28
2022-08-16T20:49:55.066Z,-11470.38
2022-08-16T20:53:02.970Z,-11470.53
2022-08-16T20:56:10.541Z,-11472.94
2022-08-16T20:59:17.002Z,-11477.44
2022-08-16T21:02:27.088Z,-11468.13
2022-08-16T21:05:35.150Z,-11450.38
2022-08-16T21:08:53.459Z,-11439.66
2022-08-16T21:12:04.210Z,-11454.47
2022-08-16T21:15:11.712Z,-11459.97
2022-08-16T21:18:21.065Z,-11461.50
2022-08-16T21:21:31.944Z,-11464.88
2022-08-16T21:24:42.541Z,-11461.22
2022-08-16T21:28:39.509Z,-11461.50
2022-08-16T21:31:18.838Z,-11459.41
2022-08-16T21:34:25.854Z,-11460.09
2022-08-16T21:37:32.568Z,-11457.84
2022-08-16T21:40:41.787Z,-11453.03
2022-08-16T21:43:48.679Z,-11455.88
2022-08-16T21:46:55.396Z,-11439.09
2022-08-16T21:50:01.838Z,-11439.38
2022-08-16T21:53:10.640Z,-11443.47
2022-08-16T21:56:19.063Z,-11449.94
2022-08-16T21:59:25.758Z,-11443.03
2022-08-16T22:02:33.978Z,-11450.50
2022-08-16T22:05:46.582Z,-11448.25
2022-08-16T22:09:15.894Z,-11452.19
2022-08-16T22:12:26.195Z,-11446.97
2022-08-16T22:15:32.544Z,-11450.78
2022-08-16T22:18:38.831Z,-11437.25
2022-08-16T22:21:45.926Z,-11439.38
2022-08-16T22:24:52.177Z,-11446.28
2022-08-16T22:28:00.224Z,-11445.72
2022-08-16T22:31:06.757Z,-11440.63
2022-08-16T22:34:13.899Z,-11444.88
2022-08-16T22:37:20.307Z,-11447.13
2022-08-16T22:40:26.628Z,-11437.25
2022-08-16T22:43:34.536Z,-11439.38
2022-08-16T22:46:40.887Z,-11436.84
2022-08-16T22:49:47.471Z,-11415.25
2022-08-16T22:52:57.048Z,-11412.59
2022-08-16T22:56:03.860Z,-11416.38
2022-08-16T22:59:11.601Z,-11426.41
2022-08-16T23:02:18.135Z,-11439.50
2022-08-16T23:05:24.934Z,-11439.22
2022-08-16T23:08:39.060Z,-11441.63
2022-08-16T23:11:46.566Z,-11435.13
2022-08-16T23:14:54.434Z,-11438.25
2022-08-16T23:18:00.706Z,-11431.34
2022-08-16T23:21:09.691Z,-11421.88
2022-08-16T23:24:19.509Z,-11409.91
2022-08-16T23:27:26.038Z,-11399.06
2022-08-16T23:30:38.904Z,-11408.22
2022-08-16T23:33:47.219Z,-11411.88
2022-08-16T23:36:53.795Z,-11418.38
2022-08-16T23:40:00.283Z,-11421.19
2022-08-16T23:43:08.584Z,-11417.09
2022-08-16T23:46:19.648Z,-11419.06
2022-08-16T23:49:57.381Z,-11420.34
2022-08-16T23:52:59.685Z,-11421.47
2022-08-16T23:56:08.353Z,-11425.00
2022-08-16T23:59:14.677Z,-11421.75
